sensor_id;sensor_type;location;lat;lon;timestamp;pressure;altitude;pressure_sealevel;temperature;humidity
69667;BME280;66534;52.370;4.832;2023-03-20T00:01:21;101912.78;;;8.06;100.00
69667;BME280;66534;52.370;4.832;2023-03-20T00:01:55;101911.06;;;8.05;100.00
69667;BME280;66534;52.370;4.832;2023-03-20T00:02:25;101917.06;;;8.10;100.00
69667;BME280;66534;52.370;4.832;2023-03-20T00:02:56;101917.09;;;8.08;100.00
69667;BME280;66534;52.370;4.832;2023-03-20T00:03:27;101917.06;;;8.11;100.00
69667;BME280;66534;52.370;4.832;2023-03-20T00:03:57;101909.13;;;8.14;100.00
69667;BME280;66534;52.370;4.832;2023-03-20T00:04:28;101912.78;;;8.06;100.00
69667;BME280;66534;52.370;4.832;2023-03-20T00:04:58;101916.31;;;8.02;100.00
69667;BME280;66534;52.370;4.832;2023-03-20T00:05:29;101909.47;;;7.96;100.00
69667;BME280;66534;52.370;4.832;2023-03-20T00:06:01;101912.81;;;8.04;100.00
69667;BME280;66534;52.370;4.832;2023-03-20T00:06:31;101913.63;;;8.08;100.00
69667;BME280;66534;52.370;4.832;2023-03-20T00:07:01;101911.78;;;8.13;100.00
69667;BME280;66534;52.370;4.832;2023-03-20T00:07:32;101911.75;;;8.16;100.00
69667;BME280;66534;52.370;4.832;2023-03-20T00:08:03;101913.50;;;8.14;100.00
69667;BME280;66534;52.370;4.832;2023-03-20T00:08:34;101908.31;;;8.12;100.00
69667;BME280;66534;52.370;4.832;2023-03-20T00:09:04;101910.81;;;8.20;100.00
69667;BME280;66534;52.370;4.832;2023-03-20T00:09:35;101907.38;;;8.15;100.00
69667;BME280;66534;52.370;4.832;2023-03-20T00:10:05;101916.16;;;8.11;100.00
69667;BME280;66534;52.370;4.832;2023-03-20T00:10:37;101902.25;;;8.10;100.00
69667;BME280;66534;52.370;4.832;2023-03-20T00:11:16;101911.06;;;8.05;100.00
69667;BME280;66534;52.370;4.832;2023-03-20T00:11:52;101917.06;;;8.10;100.00
69667;BME280;66534;52.370;4.832;2023-03-20T00:12:24;101906.53;;;8.14;100.00
69667;BME280;66534;52.370;4.832;2023-03-20T00:12:55;101910.00;;;8.16;100.00
69667;BME280;66534;52.370;4.832;2023-03-20T00:13:26;101911.00;;;8.08;100.00
69667;BME280;66534;52.370;4.832;2023-03-20T00:14:01;101917.19;;;8.04;100.00
69667;BME280;66534;52.370;4.832;2023-03-20T00:14:34;101910.00;;;8.16;100.00
69667;BME280;66534;52.370;4.832;2023-03-20T00:15:05;101916.91;;;8.19;100.00
69667;BME280;66534;52.370;4.832;2023-03-20T00:15:51;101907.47;;;8.10;100.00
69667;BME280;66534;52.370;4.832;2023-03-20T00:16:23;101905.00;;;8.03;100.00
69667;BME280;66534;52.370;4.832;2023-03-20T00:16:56;101903.25;;;8.03;100.00
69667;BME280;66534;52.370;4.832;2023-03-20T00:17:27;101909.41;;;7.97;100.00
69667;BME280;66534;52.370;4.832;2023-03-20T00:17:57;101903.38;;;7.95;100.00
69667;BME280;66534;52.370;4.832;2023-03-20T00:18:28;101897.22;;;7.99;100.00
69667;BME280;66534;52.370;4.832;2023-03-20T00:18:59;101902.41;;;8.01;100.00
69667;BME280;66534;52.370;4.832;2023-03-20T00:19:29;101908.53;;;8.00;100.00
69667;BME280;66534;52.370;4.832;2023-03-20T00:20:00;101905.13;;;7.93;100.00
69667;BME280;66534;52.370;4.832;2023-03-20T00:20:34;101915.50;;;7.99;100.00
69667;BME280;66534;52.370;4.832;2023-03-20T00:21:04;101907.53;;;8.07;100.00
69667;BME280;66534;52.370;4.832;2023-03-20T00:21:35;101912.78;;;8.06;100.00
69667;BME280;66534;52.370;4.832;2023-03-20T00:22:07;101908.47;;;8.02;100.00
69667;BME280;66534;52.370;4.832;2023-03-20T00:22:37;101912.88;;;7.98;100.00
69667;BME280;66534;52.370;4.832;2023-03-20T00:23:08;101911.16;;;7.98;100.00
69667;BME280;66534;52.370;4.832;2023-03-20T00:23:38;101911.00;;;8.08;100.00
69667;BME280;66534;52.370;4.832;2023-03-20T00:24:09;101915.50;;;7.98;100.00
69667;BME280;66534;52.370;4.832;2023-03-20T00:24:39;101913.00;;;7.92;100.00
69667;BME280;66534;52.370;4.832;2023-03-20T00:25:14;101919.16;;;7.88;100.00
69667;BME280;66534;52.370;4.832;2023-03-20T00:25:46;101926.03;;;7.95;100.00
69667;BME280;66534;52.370;4.832;2023-03-20T00:26:17;101917.34;;;7.94;100.00
69667;BME280;66534;52.370;4.832;2023-03-20T00:26:49;101925.03;;;8.02;100.00
69667;BME280;66534;52.370;4.832;2023-03-20T00:27:20;101925.91;;;8.01;100.00
69667;BME280;66534;52.370;4.832;2023-03-20T00:27:51;101923.53;;;7.87;100.00
69667;BME280;66534;52.370;4.832;2023-03-20T00:28:38;101928.72;;;7.89;100.00
69667;BME280;66534;52.370;4.832;2023-03-20T00:29:51;101930.47;;;7.88;100.00
69667;BME280;66534;52.370;4.832;2023-03-20T00:30:55;101926.88;;;7.95;100.00
69667;BME280;66534;52.370;4.832;2023-03-20T00:31:56;101931.25;;;7.95;100.00
69667;BME280;66534;52.370;4.832;2023-03-20T00:32:27;101929.63;;;7.88;100.00
69667;BME280;66534;52.370;4.832;2023-03-20T00:32:57;101933.13;;;7.87;100.00
69667;BME280;66534;52.370;4.832;2023-03-20T00:33:28;101840.84;;;7.31;100.00
69667;BME280;66534;52.370;4.832;2023-03-20T00:34:01;101935.75;;;7.85;100.00
69667;BME280;66534;52.370;4.832;2023-03-20T00:34:34;101936.56;;;7.90;100.00
69667;BME280;66534;52.370;4.832;2023-03-20T00:35:15;101942.78;;;7.82;100.00
69667;BME280;66534;52.370;4.832;2023-03-20T00:35:47;101939.31;;;7.80;100.00
69667;BME280;66534;52.370;4.832;2023-03-20T00:36:18;101935.78;;;7.84;100.00
69667;BME280;66534;52.370;4.832;2023-03-20T00:36:49;101936.75;;;7.78;100.00
69667;BME280;66534;52.370;4.832;2023-03-20T00:37:20;101937.56;;;7.82;100.00
69667;BME280;66534;52.370;4.832;2023-03-20T00:37:51;101945.25;;;7.91;100.00
69667;BME280;66534;52.370;4.832;2023-03-20T00:38:22;101949.66;;;7.87;100.00
69667;BME280;66534;52.370;4.832;2023-03-20T00:38:52;101945.28;;;7.88;100.00
69667;BME280;66534;52.370;4.832;2023-03-20T00:39:23;101940.06;;;7.88;100.00
69667;BME280;66534;52.370;4.832;2023-03-20T00:39:53;101949.72;;;7.83;100.00
69667;BME280;66534;52.370;4.832;2023-03-20T00:40:26;101951.50;;;7.81;100.00
69667;BME280;66534;52.370;4.832;2023-03-20T00:40:59;101949.66;;;7.87;100.00
69667;BME280;66534;52.370;4.832;2023-03-20T00:41:31;101947.88;;;7.89;100.00
69667;BME280;66534;52.370;4.832;2023-03-20T00:42:11;101951.38;;;7.88;100.00
69667;BME280;66534;52.370;4.832;2023-03-20T00:42:55;101943.63;;;7.84;100.00
69667;BME280;66534;52.370;4.832;2023-03-20T00:43:29;101939.16;;;7.90;100.00
69667;BME280;66534;52.370;4.832;2023-03-20T00:44:01;101938.44;;;7.81;100.00
69667;BME280;66534;52.370;4.832;2023-03-20T00:44:53;101934.03;;;7.84;100.00
69667;BME280;66534;52.370;4.832;2023-03-20T00:45:28;101933.00;;;7.94;100.00
69667;BME280;66534;52.370;4.832;2023-03-20T00:46:00;101932.19;;;7.91;100.00
69667;BME280;66534;52.370;4.832;2023-03-20T00:46:31;101926.97;;;7.91;100.00
69667;BME280;66534;52.370;4.832;2023-03-20T00:47:16;101932.94;;;7.99;100.00
69667;BME280;66534;52.370;4.832;2023-03-20T00:47:49;101921.66;;;7.95;100.00
69667;BME280;66534;52.370;4.832;2023-03-20T00:48:20;101927.72;;;7.97;100.00
69667;BME280;66534;52.370;4.832;2023-03-20T00:48:51;101920.88;;;7.89;100.00
69667;BME280;66534;52.370;4.832;2023-03-20T00:49:23;101921.00;;;7.83;100.00
69667;BME280;66534;52.370;4.832;2023-03-20T00:49:56;101917.56;;;7.79;100.00
69667;BME280;66534;52.370;4.832;2023-03-20T00:50:28;101919.25;;;7.83;100.00
69667;BME280;66534;52.370;4.832;2023-03-20T00:51:00;101923.53;;;7.86;100.00
69667;BME280;66534;52.370;4.832;2023-03-20T00:51:30;101924.44;;;7.85;100.00
69667;BME280;66534;52.370;4.832;2023-03-20T00:52:01;101921.81;;;7.86;100.00
69667;BME280;66534;52.370;4.832;2023-03-20T00:52:33;101923.47;;;7.92;100.00
69667;BME280;66534;52.370;4.832;2023-03-20T00:53:04;101925.88;;;8.04;100.00
69667;BME280;66534;52.370;4.832;2023-03-20T00:53:35;101926.72;;;8.05;100.00
69667;BME280;66534;52.370;4.832;2023-03-20T00:54:11;101928.44;;;8.06;100.00
69667;BME280;66534;52.370;4.832;2023-03-20T00:54:42;101936.44;;;7.96;100.00
69667;BME280;66534;52.370;4.832;2023-03-20T00:55:13;101937.41;;;7.91;100.00
69667;BME280;66534;52.370;4.832;2023-03-20T00:55:44;101940.03;;;7.89;100.00
69667;BME280;66534;52.370;4.832;2023-03-20T00:56:27;101944.38;;;7.92;100.00
69667;BME280;66534;52.370;4.832;2023-03-20T00:57:03;101951.41;;;7.87;100.00
69667;BME280;66534;52.370;4.832;2023-03-20T00:57:59;101945.88;;;8.05;100.00
69667;BME280;66534;52.370;4.832;2023-03-20T00:58:31;101948.41;;;8.10;100.00
69667;BME280;66534;52.370;4.832;2023-03-20T00:59:02;101945.84;;;8.07;100.00
69667;BME280;66534;52.370;4.832;2023-03-20T00:59:36;101943.38;;;7.99;100.00
69667;BME280;66534;52.370;4.832;2023-03-20T01:01:06;101949.44;;;8.01;100.00
69667;BME280;66534;52.370;4.832;2023-03-20T01:01:36;101939.06;;;7.96;100.00
69667;BME280;66534;52.370;4.832;2023-03-20T01:02:07;101939.91;;;7.98;100.00
69667;BME280;66534;52.370;4.832;2023-03-20T01:02:38;101930.31;;;7.99;100.00
69667;BME280;66534;52.370;4.832;2023-03-20T01:03:24;101935.44;;;8.05;100.00
69667;BME280;66534;52.370;4.832;2023-03-20T01:03:55;101937.03;;;8.15;100.00
69667;BME280;66534;52.370;4.832;2023-03-20T01:04:33;101940.53;;;8.13;100.00
69667;BME280;66534;52.370;4.832;2023-03-20T01:05:06;101941.47;;;8.09;100.00
69667;BME280;66534;52.370;4.832;2023-03-20T01:05:37;101936.81;;;8.26;100.00
69667;BME280;66534;52.370;4.832;2023-03-20T01:06:08;101933.31;;;8.27;100.00
69667;BME280;66534;52.370;4.832;2023-03-20T01:06:42;101935.78;;;8.35;100.00
69667;BME280;66534;52.370;4.832;2023-03-20T01:07:13;101942.09;;;8.23;100.00
69667;BME280;66534;52.370;4.832;2023-03-20T01:07:45;101936.81;;;8.26;100.00
69667;BME280;66534;52.370;4.832;2023-03-20T01:08:48;101950.13;;;8.11;100.00
69667;BME280;66534;52.370;4.832;2023-03-20T01:09:18;101945.16;;;7.97;100.00
69667;BME280;66534;52.370;4.832;2023-03-20T01:09:49;101942.78;;;7.80;100.00
69667;BME280;66534;52.370;4.832;2023-03-20T01:10:20;101948.88;;;7.81;100.00
69667;BME280;66534;52.370;4.832;2023-03-20T01:10:53;101944.47;;;7.84;100.00
69667;BME280;66534;52.370;4.832;2023-03-20T01:11:26;101943.59;;;7.85;100.00
69667;BME280;66534;52.370;4.832;2023-03-20T01:11:57;101941.72;;;7.93;100.00
69667;BME280;66534;52.370;4.832;2023-03-20T01:12:29;101943.38;;;7.97;100.00
69667;BME280;66534;52.370;4.832;2023-03-20T01:13:00;101939.22;;;7.86;100.00
69667;BME280;66534;52.370;4.832;2023-03-20T01:13:31;101944.44;;;7.87;100.00
69667;BME280;66534;52.370;4.832;2023-03-20T01:14:02;101942.84;;;7.79;100.00
69667;BME280;66534;52.370;4.832;2023-03-20T01:14:33;101938.50;;;7.78;100.00
69667;BME280;66534;52.370;4.832;2023-03-20T01:15:06;101940.09;;;7.85;100.00
69667;BME280;66534;52.370;4.832;2023-03-20T01:15:47;101935.66;;;7.90;100.00
69667;BME280;66534;52.370;4.832;2023-03-20T01:16:22;101937.56;;;7.82;100.00
69667;BME280;66534;52.370;4.832;2023-03-20T01:16:55;101934.09;;;7.80;100.00
69667;BME280;66534;52.370;4.832;2023-03-20T01:17:26;101939.28;;;7.81;100.00
69667;BME280;66534;52.370;4.832;2023-03-20T01:17:57;101946.19;;;7.85;100.00
69667;BME280;66534;52.370;4.832;2023-03-20T01:18:28;101941.81;;;7.87;100.00
69667;BME280;66534;52.370;4.832;2023-03-20T01:18:58;101948.94;;;7.78;100.00
69667;BME280;66534;52.370;4.832;2023-03-20T01:19:29;101943.88;;;7.67;100.00
69667;BME280;66534;52.370;4.832;2023-03-20T01:19:59;101950.00;;;7.64;100.00
69667;BME280;66534;52.370;4.832;2023-03-20T01:20:30;101947.38;;;7.66;100.00
69667;BME280;66534;52.370;4.832;2023-03-20T01:21:01;101949.19;;;7.61;100.00
69667;BME280;66534;52.370;4.832;2023-03-20T01:21:31;101944.84;;;7.60;100.00
69667;BME280;66534;52.370;4.832;2023-03-20T01:22:02;101944.75;;;7.64;100.00
69667;BME280;66534;52.370;4.832;2023-03-20T01:22:32;101946.56;;;7.62;100.00
69667;BME280;66534;52.370;4.832;2023-03-20T01:23:02;101942.22;;;7.60;100.00
69667;BME280;66534;52.370;4.832;2023-03-20T01:23:33;101943.16;;;7.57;100.00
69667;BME280;66534;52.370;4.832;2023-03-20T01:24:03;101806.03;;;6.73;100.00
69667;BME280;66534;52.370;4.832;2023-03-20T01:24:34;101936.16;;;7.59;100.00
69667;BME280;66534;52.370;4.832;2023-03-20T01:25:05;101938.03;;;7.49;100.00
69667;BME280;66534;52.370;4.832;2023-03-20T01:25:35;101935.38;;;7.51;100.00
69667;BME280;66534;52.370;4.832;2023-03-20T01:27:01;101938.78;;;7.56;100.00
69667;BME280;66534;52.370;4.832;2023-03-20T01:27:34;101937.94;;;7.57;100.00
69667;BME280;66534;52.370;4.832;2023-03-20T01:28:15;101941.38;;;7.61;100.00
69667;BME280;66534;52.370;4.832;2023-03-20T01:28:50;101948.38;;;7.56;100.00
69667;BME280;66534;52.370;4.832;2023-03-20T01:29:22;101953.63;;;7.54;100.00
69667;BME280;66534;52.370;4.832;2023-03-20T01:29:59;101954.59;;;7.48;100.00
69667;BME280;66534;52.370;4.832;2023-03-20T01:30:30;101958.00;;;7.52;100.00
69667;BME280;66534;52.370;4.832;2023-03-20T01:31:01;101955.38;;;7.52;100.00
69667;BME280;66534;52.370;4.832;2023-03-20T01:31:31;101961.44;;;7.57;100.00
69667;BME280;66534;52.370;4.832;2023-03-20T01:32:02;101957.97;;;7.55;100.00
69667;BME280;66534;52.370;4.832;2023-03-20T01:32:32;101969.22;;;7.59;100.00
69667;BME280;66534;52.370;4.832;2023-03-20T01:33:05;101958.00;;;7.54;100.00
69667;BME280;66534;52.370;4.832;2023-03-20T01:33:42;101952.72;;;7.58;100.00
69667;BME280;66534;52.370;4.832;2023-03-20T01:34:13;101956.97;;;7.64;100.00
69667;BME280;66534;52.370;4.832;2023-03-20T01:34:45;101959.56;;;7.64;100.00
69667;BME280;66534;52.370;4.832;2023-03-20T01:35:18;101950.97;;;7.57;100.00
69667;BME280;66534;52.370;4.832;2023-03-20T01:35:50;101953.66;;;7.53;100.00
69667;BME280;66534;52.370;4.832;2023-03-20T01:36:21;101953.59;;;7.56;100.00
69667;BME280;66534;52.370;4.832;2023-03-20T01:36:54;101954.53;;;7.53;100.00
69667;BME280;66534;52.370;4.832;2023-03-20T01:37:26;101955.50;;;7.44;100.00
69667;BME280;66534;52.370;4.832;2023-03-20T01:37:57;101955.47;;;7.46;100.00
69667;BME280;66534;52.370;4.832;2023-03-20T01:38:27;101958.03;;;7.51;100.00
69667;BME280;66534;52.370;4.832;2023-03-20T01:38:58;101948.38;;;7.57;100.00
69667;BME280;66534;52.370;4.832;2023-03-20T01:39:32;101951.06;;;7.53;100.00
69667;BME280;66534;52.370;4.832;2023-03-20T01:40:08;101957.13;;;7.53;100.00
69667;BME280;66534;52.370;4.832;2023-03-20T01:41:00;101961.25;;;7.69;100.00
69667;BME280;66534;52.370;4.832;2023-03-20T01:41:36;101962.97;;;7.69;100.00
69667;BME280;66534;52.370;4.832;2023-03-20T01:42:06;101964.72;;;7.70;100.00
69667;BME280;66534;52.370;4.832;2023-03-20T01:42:37;101966.34;;;7.77;100.00
69667;BME280;66534;52.370;4.832;2023-03-20T01:43:15;101965.66;;;7.64;100.00
69667;BME280;66534;52.370;4.832;2023-03-20T01:43:47;101959.44;;;7.73;100.00
69667;BME280;66534;52.370;4.832;2023-03-20T01:44:19;101967.28;;;7.73;100.00
69667;BME280;66534;52.370;4.832;2023-03-20T01:44:58;101959.44;;;7.74;100.00
69667;BME280;66534;52.370;4.832;2023-03-20T01:45:33;101957.69;;;7.75;100.00
69667;BME280;66534;52.370;4.832;2023-03-20T01:46:43;101955.94;;;7.76;100.00
69667;BME280;66534;52.370;4.832;2023-03-20T01:47:15;101953.25;;;7.80;100.00
69667;BME280;66534;52.370;4.832;2023-03-20T01:47:48;101955.78;;;7.85;100.00
69667;BME280;66534;52.370;4.832;2023-03-20T01:48:18;101959.31;;;7.82;100.00
69667;BME280;66534;52.370;4.832;2023-03-20T01:50:20;101947.22;;;7.75;100.00
69667;BME280;66534;52.370;4.832;2023-03-20T01:50:51;101944.72;;;7.67;100.00
69667;BME280;66534;52.370;4.832;2023-03-20T01:51:26;101944.81;;;7.63;100.00
69667;BME280;66534;52.370;4.832;2023-03-20T01:51:58;101943.00;;;7.65;100.00
69667;BME280;66534;52.370;4.832;2023-03-20T01:52:28;101941.28;;;7.65;100.00
69667;BME280;66534;52.370;4.832;2023-03-20T01:53:01;101941.22;;;7.70;100.00
69667;BME280;66534;52.370;4.832;2023-03-20T01:53:41;101938.50;;;7.76;100.00
69667;BME280;66534;52.370;4.832;2023-03-20T01:54:52;101935.00;;;7.79;100.00
69667;BME280;66534;52.370;4.832;2023-03-20T01:55:22;101941.91;;;7.81;100.00
69667;BME280;66534;52.370;4.832;2023-03-20T01:55:55;101934.09;;;7.80;100.00
69667;BME280;66534;52.370;4.832;2023-03-20T01:56:28;101931.56;;;7.75;100.00
69667;BME280;66534;52.370;4.832;2023-03-20T01:57:07;101932.56;;;7.65;100.00
69667;BME280;66534;52.370;4.832;2023-03-20T01:57:41;101931.84;;;7.55;100.00
69667;BME280;66534;52.370;4.832;2023-03-20T01:58:14;101928.41;;;7.53;100.00
69667;BME280;66534;52.370;4.832;2023-03-20T01:58:52;101916.28;;;7.47;100.00
69667;BME280;66534;52.370;4.832;2023-03-20T01:59:30;101918.88;;;7.51;100.00
69667;BME280;66534;52.370;4.832;2023-03-20T02:00:06;101920.47;;;7.59;100.00
69667;BME280;66534;52.370;4.832;2023-03-20T02:00:40;101921.34;;;7.60;100.00
69667;BME280;66534;52.370;4.832;2023-03-20T02:01:11;101922.31;;;7.54;100.00
69667;BME280;66534;52.370;4.832;2023-03-20T02:01:43;101919.66;;;7.56;100.00
69667;BME280;66534;52.370;4.832;2023-03-20T02:02:14;101917.94;;;7.55;100.00
69667;BME280;66534;52.370;4.832;2023-03-20T02:02:50;101925.53;;;7.71;100.00
69667;BME280;66534;52.370;4.832;2023-03-20T02:03:20;101931.56;;;7.75;100.00
69667;BME280;66534;52.370;4.832;2023-03-20T02:03:52;101923.81;;;7.70;100.00
69667;BME280;66534;52.370;4.832;2023-03-20T02:04:26;101930.84;;;7.65;100.00
69667;BME280;66534;52.370;4.832;2023-03-20T02:05:02;101922.00;;;7.72;100.00
69667;BME280;66534;52.370;4.832;2023-03-20T02:05:37;101923.88;;;7.66;100.00
69667;BME280;66534;52.370;4.832;2023-03-20T02:06:08;101924.78;;;7.63;100.00
69667;BME280;66534;52.370;4.832;2023-03-20T02:06:39;101932.75;;;7.54;100.00
69667;BME280;66534;52.370;4.832;2023-03-20T02:07:10;101929.25;;;7.55;100.00
69667;BME280;66534;52.370;4.832;2023-03-20T02:07:46;101930.28;;;7.43;100.00
69667;BME280;66534;52.370;4.832;2023-03-20T02:08:27;101921.50;;;7.47;100.00
69667;BME280;66534;52.370;4.832;2023-03-20T02:09:00;101918.72;;;7.61;100.00
69667;BME280;66534;52.370;4.832;2023-03-20T02:09:31;101918.66;;;7.66;100.00
69667;BME280;66534;52.370;4.832;2023-03-20T02:10:02;101920.53;;;7.55;100.00
69667;BME280;66534;52.370;4.832;2023-03-20T02:10:35;101922.38;;;7.48;100.00
69667;BME280;66534;52.370;4.832;2023-03-20T02:11:05;101919.81;;;7.45;100.00
69667;BME280;66534;52.370;4.832;2023-03-20T02:11:37;101914.59;;;7.45;100.00
69667;BME280;66534;52.370;4.832;2023-03-20T02:12:10;101918.94;;;7.46;100.00
69667;BME280;66534;52.370;4.832;2023-03-20T02:12:42;101918.88;;;7.51;100.00
69667;BME280;66534;52.370;4.832;2023-03-20T02:13:14;101920.66;;;7.48;100.00
69667;BME280;66534;52.370;4.832;2023-03-20T02:13:45;101915.41;;;7.50;100.00
69667;BME280;66534;52.370;4.832;2023-03-20T02:14:16;101918.06;;;7.44;100.00
69667;BME280;66534;52.370;4.832;2023-03-20T02:14:48;101919.78;;;7.46;100.00
69667;BME280;66534;52.370;4.832;2023-03-20T02:15:19;101925.09;;;7.42;100.00
69667;BME280;66534;52.370;4.832;2023-03-20T02:16:11;101915.47;;;7.44;100.00
69667;BME280;66534;52.370;4.832;2023-03-20T02:16:42;101922.44;;;7.43;100.00
69667;BME280;66534;52.370;4.832;2023-03-20T02:17:12;101917.16;;;7.49;100.00
69667;BME280;66534;52.370;4.832;2023-03-20T02:17:44;101914.50;;;7.51;100.00
69667;BME280;66534;52.370;4.832;2023-03-20T02:18:15;101911.00;;;7.52;100.00
69667;BME280;66534;52.370;4.832;2023-03-20T02:18:46;101911.94;;;7.48;100.00
69667;BME280;66534;52.370;4.832;2023-03-20T02:19:30;101912.75;;;7.52;100.00
69667;BME280;66534;52.370;4.832;2023-03-20T02:29:39;101884.84;;;7.57;100.00
69667;BME280;66534;52.370;4.832;2023-03-20T02:30:40;101884.81;;;7.58;100.00
69667;BME280;66534;52.370;4.832;2023-03-20T02:31:47;101883.03;;;7.62;100.00
69667;BME280;66534;52.370;4.832;2023-03-20T02:35:47;101857.06;;;7.53;100.00
69667;BME280;66534;52.370;4.832;2023-03-20T02:40:47;101868.84;;;7.78;100.00
69667;BME280;66534;52.370;4.832;2023-03-20T02:41:32;101864.47;;;7.77;100.00
69667;BME280;66534;52.370;4.832;2023-03-20T02:42:17;101860.31;;;7.67;100.00
69667;BME280;66534;52.370;4.832;2023-03-20T02:42:55;101865.56;;;7.65;100.00
69667;BME280;66534;52.370;4.832;2023-03-20T02:43:51;101864.63;;;7.68;100.00
69667;BME280;66534;52.370;4.832;2023-03-20T02:44:37;101870.13;;;7.51;100.00
69667;BME280;66534;52.370;4.832;2023-03-20T02:45:21;101869.41;;;7.41;100.00
69667;BME280;66534;52.370;4.832;2023-03-20T02:47:25;101875.06;;;7.68;100.00
69667;BME280;66534;52.370;4.832;2023-03-20T02:49:02;101865.69;;;7.58;100.00
69667;BME280;66534;52.370;4.832;2023-03-20T02:50:46;101871.06;;;7.47;100.00
69667;BME280;66534;52.370;4.832;2023-03-20T02:51:58;101867.50;;;7.51;100.00
69667;BME280;66534;52.370;4.832;2023-03-20T02:53:41;101866.81;;;7.40;100.00
69667;BME280;66534;52.370;4.832;2023-03-20T02:55:10;101867.63;;;7.45;100.00
69667;BME280;66534;52.370;4.832;2023-03-20T02:56:00;101867.63;;;7.45;100.00
69667;BME280;66534;52.370;4.832;2023-03-20T02:56:40;101865.94;;;7.39;100.00
69667;BME280;66534;52.370;4.832;2023-03-20T02:57:22;101870.22;;;7.45;100.00
69667;BME280;66534;52.370;4.832;2023-03-20T02:58:26;101875.53;;;7.39;100.00
69667;BME280;66534;52.370;4.832;2023-03-20T02:59:56;101876.63;;;7.22;100.00
69667;BME280;66534;52.370;4.832;2023-03-20T03:00:39;101884.53;;;7.18;100.00
69667;BME280;66534;52.370;4.832;2023-03-20T03:01:22;101879.38;;;7.15;100.00
69667;BME280;66534;52.370;4.832;2023-03-20T03:02:07;101875.75;;;7.23;100.00
69667;BME280;66534;52.370;4.832;2023-03-20T03:02:43;101871.38;;;7.26;100.00
69667;BME280;66534;52.370;4.832;2023-03-20T03:03:24;101873.00;;;7.33;100.00
69667;BME280;66534;52.370;4.832;2023-03-20T03:04:19;101864.41;;;7.28;100.00
69667;BME280;66534;52.370;4.832;2023-03-20T03:04:55;101870.44;;;7.30;100.00
69667;BME280;66534;52.370;4.832;2023-03-20T03:05:37;101875.56;;;7.37;100.00
69667;BME280;66534;52.370;4.832;2023-03-20T03:06:22;101869.47;;;7.37;100.00
69667;BME280;66534;52.370;4.832;2023-03-20T03:06:59;101865.19;;;7.31;100.00
69667;BME280;66534;52.370;4.832;2023-03-20T03:07:32;101867.78;;;7.31;100.00
69667;BME280;66534;52.370;4.832;2023-03-20T03:08:05;101871.31;;;7.30;100.00
69667;BME280;66534;52.370;4.832;2023-03-20T03:08:41;101870.38;;;7.34;100.00
69667;BME280;66534;52.370;4.832;2023-03-20T03:09:21;101866.16;;;7.26;100.00
69667;BME280;66534;52.370;4.832;2023-03-20T03:10:06;101863.50;;;7.29;100.00
69667;BME280;66534;52.370;4.832;2023-03-20T03:10:42;101868.84;;;7.18;100.00
69667;BME280;66534;52.370;4.832;2023-03-20T03:11:18;101864.44;;;7.24;100.00
69667;BME280;66534;52.370;4.832;2023-03-20T03:12:08;101865.31;;;7.23;100.00
69667;BME280;66534;52.370;4.832;2023-03-20T03:12:52;101868.03;;;7.16;100.00
69667;BME280;66534;52.370;4.832;2023-03-20T03:13:27;101860.97;;;7.22;100.00
69667;BME280;66534;52.370;4.832;2023-03-20T03:14:01;101866.97;;;7.29;100.00
69667;BME280;66534;52.370;4.832;2023-03-20T03:15:30;101862.66;;;7.28;100.00
69667;BME280;66534;52.370;4.832;2023-03-20T03:16:07;101863.41;;;7.35;100.00
69667;BME280;66534;52.370;4.832;2023-03-20T03:16:43;101861.81;;;7.23;100.00
69667;BME280;66534;52.370;4.832;2023-03-20T03:17:15;101855.84;;;7.16;100.00
69667;BME280;66534;52.370;4.832;2023-03-20T03:17:47;101853.22;;;7.18;100.00
69667;BME280;66534;52.370;4.832;2023-03-20T03:18:19;101855.69;;;7.27;100.00
69667;BME280;66534;52.370;4.832;2023-03-20T03:18:57;101857.50;;;7.22;100.00
69667;BME280;66534;52.370;4.832;2023-03-20T03:19:36;101852.31;;;7.20;100.00
69667;BME280;66534;52.370;4.832;2023-03-20T03:20:57;101846.94;;;7.30;100.00
69667;BME280;66534;52.370;4.832;2023-03-20T03:21:30;101844.44;;;7.22;100.00
69667;BME280;66534;52.370;4.832;2023-03-20T03:22:03;101849.66;;;7.22;100.00
69667;BME280;66534;52.370;4.832;2023-03-20T03:22:34;101850.53;;;7.24;100.00
69667;BME280;66534;52.370;4.832;2023-03-20T03:23:05;101847.91;;;7.24;100.00
69667;BME280;66534;52.370;4.832;2023-03-20T03:23:40;101852.31;;;7.20;100.00
69667;BME280;66534;52.370;4.832;2023-03-20T03:24:30;101841.75;;;7.28;100.00
69667;BME280;66534;52.370;4.832;2023-03-20T03:25:05;101844.44;;;7.23;100.00
69667;BME280;66534;52.370;4.832;2023-03-20T03:25:40;101841.84;;;7.23;100.00
69667;BME280;66534;52.370;4.832;2023-03-20T03:26:13;101847.06;;;7.23;100.00
69667;BME280;66534;52.370;4.832;2023-03-20T03:26:49;101842.56;;;7.33;100.00
69667;BME280;66534;52.370;4.832;2023-03-20T03:27:25;101848.66;;;7.32;100.00
69667;BME280;66534;52.370;4.832;2023-03-20T03:28:07;101835.69;;;7.28;100.00
69667;BME280;66534;52.370;4.832;2023-03-20T03:28:56;101839.22;;;7.22;100.00
69667;BME280;66534;52.370;4.832;2023-03-20T03:29:31;101831.41;;;7.22;100.00
69667;BME280;66534;52.370;4.832;2023-03-20T03:30:49;101832.44;;;7.10;100.00
69667;BME280;66534;52.370;4.832;2023-03-20T03:31:22;101828.13;;;7.08;100.00
69667;BME280;66534;52.370;4.832;2023-03-20T03:31:53;101833.31;;;7.11;100.00
69667;BME280;66534;52.370;4.832;2023-03-20T03:32:32;101833.25;;;7.14;100.00
69667;BME280;66534;52.370;4.832;2023-03-20T03:33:13;101831.22;;;7.34;100.00
69667;BME280;66534;52.370;4.832;2023-03-20T03:33:52;101828.59;;;7.34;100.00
69667;BME280;66534;52.370;4.832;2023-03-20T03:34:25;101825.28;;;7.23;100.00
69667;BME280;66534;52.370;4.832;2023-03-20T03:34:57;101832.31;;;7.18;100.00